Terminal Aerodrome Forecast
Issued by NWS Pocatello, ID

Home | Current Version | Previous Version | Text Only | Print | Product List | Glossary On
Versions: 1 2 3 4 5 6 7 8 9 10 11 12 13 14 15 16 17 18 19 20 21
155
FTUS45 KPIH 221723
TAFIDA
TAF
KIDA 221723Z 2218/2318 22007KT P6SM BKN100 OVC250
     FM230500 36006KT P6SM FEW002 BKN250
     FM231000 32005KT 1SM BR BKN004 OVC200
     FM231500 30006KT 6SM BR SCT007 BKN180=

USA.gov is the U.S. government's official web portal to all federal, state and local government web resources and services.